createdAt,value
2023-02-12T00:00:54.216Z,16.20
2023-02-12T00:03:47.579Z,21.50
2023-02-12T00:06:19.973Z,18.10
2023-02-12T00:08:55.085Z,17.80
2023-02-12T00:11:28.843Z,20.20
2023-02-12T00:14:03.534Z,16.20
2023-02-12T00:16:35.871Z,12.60
2023-02-12T00:19:08.273Z,13.80
2023-02-12T00:21:41.098Z,15.50
2023-02-12T00:24:13.480Z,13.30
2023-02-12T00:26:45.896Z,13.40
2023-02-12T00:29:20.112Z,17.50
2023-02-12T00:31:52.534Z,16.50
2023-02-12T00:34:25.095Z,15.50
2023-02-12T00:36:57.234Z,14.90
2023-02-12T00:39:29.823Z,13.70
2023-02-12T00:42:02.318Z,12.50
2023-02-12T00:44:35.242Z,13.80
2023-02-12T00:47:08.750Z,14.90
2023-02-12T00:49:41.265Z,15.00
2023-02-12T00:52:13.630Z,15.90
2023-02-12T00:54:45.865Z,14.50
2023-02-12T00:57:19.875Z,13.40
2023-02-12T00:59:52.208Z,17.20
2023-02-12T01:02:24.559Z,16.80
2023-02-12T01:04:57.089Z,16.80
2023-02-12T01:07:29.827Z,15.40
2023-02-12T01:10:02.969Z,15.70
2023-02-12T01:12:35.873Z,15.30
2023-02-12T01:15:10.743Z,15.80
2023-02-12T01:17:43.867Z,17.10
2023-02-12T01:20:20.812Z,15.90
2023-02-12T01:22:53.807Z,15.40
2023-02-12T01:25:26.935Z,15.50
2023-02-12T01:28:01.431Z,15.80
2023-02-12T01:30:34.133Z,17.80
2023-02-12T01:33:06.575Z,20.10
2023-02-12T01:35:40.480Z,16.50
2023-02-12T01:38:12.865Z,15.10
2023-02-12T01:40:45.161Z,16.90
2023-02-12T01:43:17.805Z,18.90
2023-02-12T01:45:55.107Z,14.90
2023-02-12T01:48:31.214Z,14.60
2023-02-12T01:51:05.629Z,15.60
2023-02-12T01:53:43.515Z,18.80
2023-02-12T01:56:17.117Z,19.30
2023-02-12T01:58:52.597Z,20.10
2023-02-12T02:01:28.862Z,17.90
2023-02-12T02:04:06.842Z,15.90
2023-02-12T02:06:48.852Z,18.70
2023-02-12T02:09:22.499Z,18.00
2023-02-12T02:12:12.760Z,19.20
2023-02-12T02:14:45.815Z,20.50
2023-02-12T02:17:40.813Z,19.60
2023-02-12T02:20:49.561Z,22.20
2023-02-12T02:23:41.077Z,22.60
2023-02-12T02:26:44.226Z,20.90
2023-02-12T02:29:53.810Z,21.40
2023-02-12T02:32:29.118Z,20.90
2023-02-12T02:35:07.120Z,21.80
2023-02-12T02:37:46.051Z,18.70
2023-02-12T02:40:22.421Z,22.00
2023-02-12T02:42:59.839Z,20.70
2023-02-12T02:45:40.472Z,20.40
2023-02-12T02:48:20.219Z,17.80
2023-02-12T02:50:57.754Z,19.90
2023-02-12T02:53:35.385Z,21.30
2023-02-12T02:56:13.277Z,26.70
2023-02-12T02:58:49.978Z,21.70
2023-02-12T03:01:29.788Z,22.70
2023-02-12T03:04:06.853Z,22.10
2023-02-12T03:06:45.292Z,21.70
2023-02-12T03:09:22.730Z,22.70
2023-02-12T03:12:00.933Z,21.90
2023-02-12T03:14:38.190Z,21.20
2023-02-12T03:17:15.821Z,19.30
2023-02-12T03:19:54.366Z,30.50
2023-02-12T03:22:33.117Z,26.80
2023-02-12T03:25:12.499Z,23.90
2023-02-12T03:27:48.715Z,22.60
2023-02-12T03:30:22.358Z,23.40
2023-02-12T03:33:05.392Z,23.60
2023-02-12T03:35:45.847Z,20.00
2023-02-12T03:38:29.213Z,21.60
2023-02-12T03:41:06.447Z,25.30
2023-02-12T03:43:50.495Z,23.30
2023-02-12T03:46:29.073Z,22.90
2023-02-12T03:49:06.274Z,23.10
2023-02-12T03:51:42.181Z,25.60
2023-02-12T03:54:19.978Z,25.40
2023-02-12T03:56:56.996Z,23.10
2023-02-12T03:59:30.121Z,24.10
2023-02-12T04:02:02.655Z,25.40
2023-02-12T04:04:35.484Z,26.90
2023-02-12T04:07:07.884Z,28.00
2023-02-12T04:09:40.350Z,27.70
2023-02-12T04:12:31.925Z,27.00
2023-02-12T04:15:20.770Z,24.30
2023-02-12T04:18:03.725Z,24.40
2023-02-12T04:20:49.926Z,25.00
2023-02-12T04:23:40.922Z,25.10
2023-02-12T04:26:23.619Z,23.20
2023-02-12T04:29:16.495Z,27.20
2023-02-12T04:31:54.188Z,21.20
2023-02-12T04:34:34.146Z,24.80
2023-02-12T04:37:11.708Z,25.40
2023-02-12T04:39:45.655Z,27.50
2023-02-12T04:42:18.458Z,31.20
2023-02-12T04:44:50.818Z,28.00
2023-02-12T04:47:23.798Z,31.80
2023-02-12T04:49:56.296Z,32.00
2023-02-12T04:52:29.573Z,26.70
2023-02-12T04:55:02.040Z,24.90
2023-02-12T04:57:34.342Z,27.80
2023-02-12T05:00:09.350Z,31.50
2023-02-12T05:02:42.138Z,26.10
2023-02-12T05:05:15.378Z,25.80
2023-02-12T05:07:47.692Z,29.30
2023-02-12T05:10:20.467Z,29.20
2023-02-12T05:12:54.954Z,25.80
2023-02-12T05:15:27.403Z,26.30
2023-02-12T05:17:59.724Z,24.00
2023-02-12T05:20:31.981Z,26.30
2023-02-12T05:23:04.270Z,27.10
2023-02-12T05:25:37.332Z,26.90
2023-02-12T05:28:09.649Z,26.10
2023-02-12T05:30:42.109Z,28.60
2023-02-12T05:33:14.382Z,24.50
2023-02-12T05:35:46.857Z,25.50
2023-02-12T05:38:19.422Z,29.50
2023-02-12T05:40:52.000Z,24.90
2023-02-12T05:43:24.422Z,27.40
2023-02-12T05:45:57.110Z,25.70
2023-02-12T05:48:31.062Z,28.80
2023-02-12T05:51:07.683Z,31.00
2023-02-12T05:53:41.366Z,28.00
2023-02-12T05:56:18.844Z,26.80
2023-02-12T05:58:56.029Z,28.50
2023-02-12T06:01:30.830Z,29.60
2023-02-12T06:04:04.515Z,25.40
2023-02-12T06:06:37.441Z,28.60
2023-02-12T06:09:09.627Z,24.60
2023-02-12T06:11:42.746Z,27.70
2023-02-12T06:14:18.038Z,25.70
2023-02-12T06:16:52.467Z,32.90
2023-02-12T06:19:25.542Z,30.70
2023-02-12T06:21:57.732Z,32.00
2023-02-12T06:24:30.097Z,26.80
2023-02-12T06:27:02.452Z,33.10
2023-02-12T06:29:34.851Z,30.50
2023-02-12T06:32:09.056Z,27.20
2023-02-12T06:34:41.450Z,31.90
2023-02-12T06:37:15.069Z,33.80
2023-02-12T06:39:47.458Z,27.20
2023-02-12T06:42:20.100Z,30.60
2023-02-12T06:44:53.143Z,32.30
2023-02-12T06:47:26.046Z,27.50
2023-02-12T06:49:58.461Z,29.10
2023-02-12T06:52:30.857Z,29.50
2023-02-12T06:55:03.082Z,31.10
2023-02-12T06:57:35.372Z,34.50
2023-02-12T07:00:09.963Z,33.60
2023-02-12T07:02:42.201Z,31.90
2023-02-12T07:05:14.612Z,31.90
2023-02-12T07:07:46.893Z,34.20
2023-02-12T07:10:19.843Z,32.70
2023-02-12T07:12:52.822Z,33.60
2023-02-12T07:15:25.582Z,34.40
2023-02-12T07:17:58.093Z,35.60
2023-02-12T07:20:30.760Z,34.00
2023-02-12T07:23:02.982Z,33.40
2023-02-12T07:25:35.998Z,33.00
2023-02-12T07:28:08.800Z,35.10
2023-02-12T07:30:42.783Z,37.40
2023-02-12T07:33:15.257Z,31.80
2023-02-12T07:35:47.842Z,34.80
2023-02-12T07:38:20.500Z,74.20
2023-02-12T07:40:52.682Z,86.80
2023-02-12T07:43:25.198Z,66.40
2023-02-12T07:45:57.962Z,82.80
2023-02-12T07:48:31.244Z,122.20
2023-02-12T07:51:08.978Z,94.80
2023-02-12T07:53:42.425Z,119.00
2023-02-12T07:56:17.439Z,154.80
2023-02-12T07:58:52.637Z,64.40
2023-02-12T08:01:27.636Z,75.60
2023-02-12T08:04:01.744Z,118.50
2023-02-12T08:06:36.524Z,123.40
2023-02-12T08:09:11.562Z,119.10
2023-02-12T08:11:45.429Z,89.20
2023-02-12T08:14:19.985Z,163.70
2023-02-12T08:16:53.226Z,61.70
2023-02-12T08:19:26.911Z,79.30
2023-02-12T08:21:59.834Z,62.10
2023-02-12T08:24:32.871Z,74.80
2023-02-12T08:27:06.336Z,108.20
2023-02-12T08:29:38.685Z,106.20
2023-02-12T08:32:14.249Z,47.90
2023-02-12T08:34:47.041Z,32.40
2023-02-12T08:37:19.637Z,56.80
2023-02-12T08:39:52.519Z,44.90
2023-02-12T08:42:26.002Z,40.50
2023-02-12T08:44:59.189Z,38.40
2023-02-12T08:47:31.876Z,48.90
2023-02-12T08:50:04.481Z,43.70
2023-02-12T08:52:37.936Z,36.20
2023-02-12T08:55:10.935Z,35.40
2023-02-12T08:57:45.252Z,40.80
2023-02-12T09:00:19.247Z,42.60
2023-02-12T09:02:52.694Z,24.90
2023-02-12T09:05:25.055Z,21.50
2023-02-12T09:07:57.605Z,19.00
2023-02-12T09:10:30.476Z,14.80
2023-02-12T09:13:02.867Z,21.20
2023-02-12T09:15:39.928Z,23.00
2023-02-12T09:18:12.324Z,20.20
2023-02-12T09:20:46.368Z,20.20
2023-02-12T09:23:18.643Z,19.20
2023-02-12T09:25:51.386Z,13.80
2023-02-12T09:28:24.532Z,15.70
2023-02-12T09:30:56.990Z,13.60
2023-02-12T09:33:29.637Z,21.40
2023-02-12T09:36:06.405Z,16.80
2023-02-12T09:38:39.324Z,14.50
2023-02-12T09:41:39.012Z,37.70
2023-02-12T09:44:19.050Z,27.00
2023-02-12T09:46:59.207Z,25.70
2023-02-12T09:49:49.204Z,26.10
2023-02-12T09:52:26.822Z,33.10
2023-02-12T09:54:59.819Z,48.90
2023-02-12T09:57:36.312Z,41.20
2023-02-12T10:00:12.814Z,50.90
2023-02-12T10:02:45.357Z,22.50
2023-02-12T10:05:21.991Z,25.70
2023-02-12T10:08:09.701Z,25.40
2023-02-12T10:10:53.498Z,19.30
2023-02-12T10:13:39.966Z,22.20
2023-02-12T10:16:22.054Z,19.90
2023-02-12T10:19:07.872Z,23.70
2023-02-12T10:21:56.399Z,36.80
2023-02-12T10:27:16.714Z,25.60
2023-02-12T10:29:51.235Z,22.80
2023-02-12T10:32:31.723Z,25.40
2023-02-12T10:35:14.213Z,21.80
2023-02-12T10:37:54.213Z,29.30
2023-02-12T10:40:30.175Z,44.80
2023-02-12T10:43:04.018Z,33.60
2023-02-12T10:45:40.178Z,21.30
2023-02-12T10:48:17.461Z,24.40
2023-02-12T10:51:14.181Z,22.70
2023-02-12T10:53:48.700Z,18.30
2023-02-12T10:56:24.805Z,16.30
2023-02-12T11:01:33.531Z,20.00
2023-02-12T11:07:03.788Z,28.50
2023-02-12T11:09:45.746Z,20.20
2023-02-12T11:12:27.675Z,18.90
2023-02-12T11:15:02.149Z,18.70
2023-02-12T11:17:38.932Z,16.50
2023-02-12T11:20:31.796Z,31.70
2023-02-12T11:23:06.872Z,23.60
2023-02-12T11:25:40.063Z,15.70
2023-02-12T11:28:20.878Z,17.90
2023-02-12T11:30:57.026Z,21.00
2023-02-12T11:33:35.543Z,29.40
2023-02-12T11:36:18.047Z,25.10
2023-02-12T11:38:54.711Z,15.90
2023-02-12T11:41:37.423Z,28.20
2023-02-12T11:44:20.226Z,30.60
2023-02-12T11:46:56.992Z,37.20
2023-02-12T11:49:32.801Z,23.80
2023-02-12T11:52:06.877Z,66.90
2023-02-12T11:54:44.740Z,39.20
2023-02-12T11:57:40.735Z,121.40
2023-02-12T12:00:21.293Z,39.50
2023-02-12T12:03:03.941Z,79.50
2023-02-12T12:05:41.925Z,165.20
2023-02-12T12:08:29.311Z,121.40
2023-02-12T12:11:08.380Z,145.90
2023-02-12T12:13:47.715Z,59.30
2023-02-12T12:16:43.986Z,20.30
2023-02-12T12:19:39.239Z,30.80
2023-02-12T12:22:22.347Z,76.70
2023-02-12T12:24:59.851Z,59.40
2023-02-12T12:27:57.884Z,28.50
2023-02-12T12:30:42.646Z,41.30
2023-02-12T12:33:23.417Z,98.00
2023-02-12T12:36:12.121Z,35.40
2023-02-12T12:41:34.479Z,34.30
2023-02-12T12:44:23.874Z,33.30
2023-02-12T12:47:09.267Z,25.50
2023-02-12T12:49:57.165Z,21.30
2023-02-12T12:52:47.457Z,26.10
2023-02-12T12:55:42.790Z,26.50
2023-02-12T12:58:24.780Z,22.20
2023-02-12T13:01:16.941Z,25.20
2023-02-12T13:04:15.018Z,21.00
2023-02-12T13:06:57.800Z,20.60
2023-02-12T13:09:55.792Z,29.10
2023-02-12T13:12:56.707Z,39.30
2023-02-12T13:15:40.551Z,23.30
2023-02-12T13:18:22.252Z,18.50
2023-02-12T13:21:05.689Z,50.10
2023-02-12T13:23:47.379Z,22.80
2023-02-12T13:26:30.746Z,20.10
2023-02-12T13:29:07.490Z,23.50
2023-02-12T13:31:47.325Z,25.20
2023-02-12T13:34:21.339Z,20.50
2023-02-12T13:36:53.742Z,17.30
2023-02-12T13:39:33.353Z,19.80
2023-02-12T13:42:25.590Z,20.60
2023-02-12T13:45:08.256Z,20.10
2023-02-12T13:47:50.638Z,14.00
2023-02-12T13:53:10.342Z,19.30
2023-02-12T13:55:58.285Z,16.30
2023-02-12T14:01:35.512Z,20.90
2023-02-12T14:04:31.706Z,26.40
2023-02-12T14:07:07.447Z,22.90
2023-02-12T14:09:45.886Z,26.30
2023-02-12T14:12:30.006Z,27.90
2023-02-12T14:15:10.940Z,18.00
2023-02-12T14:17:57.080Z,20.80
2023-02-12T14:20:31.702Z,18.00
2023-02-12T14:23:22.495Z,21.00
2023-02-12T14:26:15.775Z,24.80
2023-02-12T14:28:55.850Z,20.50
2023-02-12T14:31:37.510Z,20.50
2023-02-12T14:34:43.962Z,24.00
2023-02-12T14:37:36.015Z,33.90
2023-02-12T14:40:44.217Z,22.50
2023-02-12T14:43:58.100Z,25.10
2023-02-12T14:46:51.298Z,24.70
2023-02-12T14:49:28.072Z,24.70
2023-02-12T14:52:05.827Z,27.70
2023-02-12T14:54:45.155Z,20.80
2023-02-12T14:57:27.373Z,25.70
2023-02-12T15:00:04.445Z,25.70
2023-02-12T15:02:38.667Z,24.50
2023-02-12T15:05:22.283Z,23.30
2023-02-12T15:08:00.143Z,21.70
2023-02-12T15:10:38.409Z,20.30
2023-02-12T15:13:26.201Z,18.60
2023-02-12T15:16:03.926Z,18.90
2023-02-12T15:18:49.756Z,22.10
2023-02-12T15:21:24.915Z,21.70
2023-02-12T15:24:09.227Z,20.80
2023-02-12T15:26:45.705Z,19.70
2023-02-12T15:29:26.956Z,25.50
2023-02-12T15:32:01.868Z,25.00
2023-02-12T15:34:39.262Z,22.50
2023-02-12T15:37:19.528Z,16.90
2023-02-12T15:39:53.878Z,19.10
2023-02-12T15:42:35.201Z,17.30
2023-02-12T15:45:19.582Z,18.60
2023-02-12T15:48:06.557Z,16.80
2023-02-12T15:50:52.356Z,19.20
2023-02-12T15:53:25.770Z,22.00
2023-02-12T15:56:00.252Z,20.50
2023-02-12T15:58:38.571Z,20.50
2023-02-12T16:01:17.089Z,19.70
2023-02-12T16:03:55.124Z,22.00
2023-02-12T16:06:30.660Z,25.30
2023-02-12T16:09:08.451Z,20.10
2023-02-12T16:11:44.414Z,23.40
2023-02-12T16:14:24.767Z,25.70
2023-02-12T16:17:00.722Z,28.40
2023-02-12T16:19:37.287Z,26.90
2023-02-12T16:22:15.869Z,32.50
2023-02-12T16:24:51.575Z,31.60
2023-02-12T16:27:26.419Z,28.70
2023-02-12T16:30:01.928Z,28.30
2023-02-12T16:32:39.943Z,33.30
2023-02-12T16:35:28.806Z,38.40
2023-02-12T16:41:04.962Z,43.40
2023-02-12T16:43:37.553Z,53.90
2023-02-12T16:46:10.665Z,58.00
2023-02-12T16:48:46.011Z,59.10
2023-02-12T16:51:29.025Z,66.90
2023-02-12T16:54:03.496Z,65.40
2023-02-12T16:56:39.126Z,62.90
2023-02-12T16:59:12.354Z,66.40
2023-02-12T17:01:57.816Z,67.80
2023-02-12T17:04:30.340Z,81.30
2023-02-12T17:07:02.859Z,81.80
2023-02-12T17:09:35.521Z,91.10
2023-02-12T17:12:08.831Z,123.70
2023-02-12T17:14:41.530Z,112.30
2023-02-12T17:17:13.752Z,89.30
2023-02-12T17:19:46.113Z,78.00
2023-02-12T17:22:23.295Z,64.10
2023-02-12T17:24:55.806Z,65.50
2023-02-12T17:27:28.249Z,67.80
2023-02-12T17:30:00.643Z,71.20
2023-02-12T17:32:32.897Z,81.50
2023-02-12T17:35:06.806Z,104.40
2023-02-12T17:37:39.381Z,113.50
2023-02-12T17:40:13.377Z,148.40
2023-02-12T17:42:45.886Z,156.40
2023-02-12T17:45:19.234Z,183.60
2023-02-12T17:47:51.609Z,155.60
2023-02-12T17:50:24.346Z,127.90
2023-02-12T17:52:56.850Z,133.40
2023-02-12T17:55:29.989Z,125.00
2023-02-12T17:58:03.500Z,130.90
2023-02-12T18:00:36.178Z,90.60
2023-02-12T18:03:08.874Z,94.50
2023-02-12T18:05:46.035Z,79.10
2023-02-12T18:08:18.638Z,76.00
2023-02-12T18:10:51.094Z,73.00
2023-02-12T18:13:23.830Z,61.60
2023-02-12T18:15:56.314Z,74.30
2023-02-12T18:18:29.289Z,69.50
2023-02-12T18:21:02.091Z,75.30
2023-02-12T18:23:34.846Z,86.30
2023-02-12T18:26:10.860Z,80.60
2023-02-12T18:28:44.218Z,81.20
2023-02-12T18:31:17.574Z,71.70
2023-02-12T18:33:50.195Z,114.00
2023-02-12T18:36:24.349Z,82.20
2023-02-12T18:38:56.864Z,75.70
2023-02-12T18:41:32.272Z,74.70
2023-02-12T18:44:05.677Z,81.40
2023-02-12T18:46:38.196Z,89.00
2023-02-12T18:49:11.130Z,80.80
2023-02-12T18:51:43.810Z,79.70
2023-02-12T18:54:16.696Z,77.70
2023-02-12T18:56:51.565Z,77.00
2023-02-12T18:59:27.237Z,245.30
2023-02-12T19:02:00.276Z,139.40
2023-02-12T19:04:33.579Z,126.10
2023-02-12T19:07:06.467Z,107.50
2023-02-12T19:09:38.975Z,145.00
2023-02-12T19:12:11.766Z,100.30
2023-02-12T19:14:44.234Z,139.40
2023-02-12T19:17:16.655Z,111.00
2023-02-12T19:19:50.660Z,126.20
2023-02-12T19:22:23.059Z,159.20
2023-02-12T19:24:55.714Z,117.30
2023-02-12T19:27:28.157Z,126.80
2023-02-12T19:30:01.034Z,126.00
2023-02-12T19:32:33.924Z,124.40
2023-02-12T19:35:06.710Z,132.00
2023-02-12T19:37:38.982Z,141.50
2023-02-12T19:40:13.189Z,142.20
2023-02-12T19:42:45.656Z,128.80
2023-02-12T19:45:18.505Z,124.50
2023-02-12T19:47:52.130Z,122.70
2023-02-12T19:50:24.598Z,126.70
2023-02-12T19:52:57.007Z,130.10
2023-02-12T19:55:29.436Z,131.10
2023-02-12T19:58:02.169Z,116.10
2023-02-12T20:00:35.219Z,117.80
2023-02-12T20:03:08.399Z,124.50
2023-02-12T20:05:46.630Z,134.60
2023-02-12T20:08:20.631Z,169.20
2023-02-12T20:10:54.004Z,150.50
2023-02-12T20:13:28.461Z,130.80
2023-02-12T20:16:05.565Z,124.00
2023-02-12T20:18:40.100Z,130.60
2023-02-12T20:21:17.028Z,126.80
2023-02-12T20:23:52.715Z,138.50
2023-02-12T20:26:26.790Z,139.20
2023-02-12T20:29:00.650Z,134.80
2023-02-12T20:31:36.018Z,131.10
2023-02-12T20:34:12.946Z,131.80
2023-02-12T20:36:47.468Z,134.90
2023-02-12T20:39:22.179Z,157.00
2023-02-12T20:41:55.476Z,178.00
2023-02-12T20:44:28.501Z,163.60
2023-02-12T20:47:01.895Z,170.30
2023-02-12T20:49:34.335Z,192.10
2023-02-12T20:52:07.346Z,178.80
2023-02-12T20:54:40.959Z,166.90
2023-02-12T20:57:13.824Z,154.70
2023-02-12T20:59:46.399Z,173.60
2023-02-12T21:02:20.000Z,204.60
2023-02-12T21:04:56.357Z,188.90
2023-02-12T21:07:29.570Z,183.60
2023-02-12T21:10:02.072Z,185.80
2023-02-12T21:12:34.618Z,174.80
2023-02-12T21:15:07.586Z,189.20
2023-02-12T21:17:40.073Z,184.90
2023-02-12T21:20:13.458Z,190.90
2023-02-12T21:22:45.785Z,170.50
2023-02-12T21:25:18.230Z,163.60
2023-02-12T21:27:50.776Z,168.80
2023-02-12T21:30:24.325Z,170.00
2023-02-12T21:32:56.947Z,146.00
2023-02-12T21:35:29.741Z,138.20
2023-02-12T21:38:02.014Z,147.20
2023-02-12T21:40:34.344Z,135.20
2023-02-12T21:43:06.543Z,127.40
2023-02-12T21:45:39.410Z,131.80
2023-02-12T21:48:11.611Z,140.40
2023-02-12T21:50:43.997Z,139.10
2023-02-12T21:53:17.349Z,135.00
2023-02-12T21:55:49.632Z,135.30
2023-02-12T21:58:22.990Z,140.80
2023-02-12T22:00:56.217Z,141.20
2023-02-12T22:03:28.717Z,154.50
2023-02-12T22:06:05.101Z,143.80
2023-02-12T22:11:10.319Z,153.00
2023-02-12T22:13:43.323Z,151.70
2023-02-12T22:16:18.903Z,146.30
2023-02-12T22:18:53.430Z,157.60
2023-02-12T22:21:27.681Z,161.60
2023-02-12T22:24:01.962Z,172.30
2023-02-12T22:26:35.099Z,201.70
2023-02-12T22:29:09.230Z,183.80
2023-02-12T22:31:44.267Z,155.00
2023-02-12T22:34:19.108Z,162.40
2023-02-12T22:36:51.848Z,151.80
2023-02-12T22:39:29.808Z,137.00
2023-02-12T22:42:02.046Z,156.30
2023-02-12T22:44:34.352Z,156.20
2023-02-12T22:47:07.031Z,150.00
2023-02-12T22:49:39.166Z,137.80
2023-02-12T22:52:12.782Z,132.30
2023-02-12T22:54:44.995Z,140.40
2023-02-12T22:57:19.341Z,156.90
2023-02-12T22:59:51.767Z,184.60
2023-02-12T23:02:24.323Z,280.60
2023-02-12T23:04:56.523Z,214.70
2023-02-12T23:07:29.063Z,185.20
2023-02-12T23:10:01.263Z,146.30
2023-02-12T23:12:33.524Z,145.70
2023-02-12T23:15:06.517Z,144.20
2023-02-12T23:17:39.086Z,136.70
2023-02-12T23:20:13.939Z,149.80
2023-02-12T23:22:46.676Z,143.80
2023-02-12T23:25:19.595Z,149.00
2023-02-12T23:27:52.274Z,142.70
2023-02-12T23:30:24.574Z,141.30
2023-02-12T23:32:57.056Z,127.80
2023-02-12T23:35:29.634Z,122.80
2023-02-12T23:38:01.973Z,121.40
2023-02-12T23:40:34.618Z,123.90
2023-02-12T23:43:07.148Z,123.90
2023-02-12T23:45:39.749Z,121.80
2023-02-12T23:48:12.810Z,111.50
2023-02-12T23:50:49.417Z,118.30
2023-02-12T23:53:22.541Z,118.40
2023-02-12T23:55:54.946Z,109.40
2023-02-12T23:58:27.538Z,113.10
